Pintada, New Mexico
Current Conditions -  °F | °C
As of 10:53 AM on Thursday 23 Oct 2014 (Local Time) from KCQC Reporting Station
Clear Clear  
Wind Chill: 17°   Ceiling: Unl
Heat Index: 17°   Visibility: 10mi
Dew Point:   Wind: 5mph
Humidity: 41%   Direction: NA
Pressure: 30.32"   Gusts: NA
Location:  34.8581°N, 104.704°W
Report Text: KCQC 231653Z AUTO VRB04KT 10SM CLR 17/03 A3032 RMK AO2 SLP203 T01670033
Loading
Personal Weather Stations






























Interactive Weather Map
Tropical Storm Tracking
New forecast layout! Learn more

10-Day Weather Forecast

Advertisements
Track Severe Weather on mobile